Time;durP1;ratioP1;P1;durP2;ratioP2;P2;SDS_P1;SDS_P2;PMS_P1;PMS_P2;Temp;Humidity;BMP_temperature;BMP_pressure;BME280_temperature;BME280_humidity;BME280_pressure;Samples;Min_cycle;Max_cycle;Signal;HPM_P1;HPM_P2
2023/09/05 00:02:15;;;;;;;7.00;4.95;;;;;;;-142.75;100.00;76643.13;5025187;28;20412;-62
2023/09/05 00:04:44;;;;;;;11.05;6.05;;;;;;;-142.75;100.00;76639.19;5031823;28;20392;-62
2023/09/05 00:07:10;;;;;;;8.75;6.53;;;;;;;-142.75;100.00;76621.47;5027980;28;20025;-62
2023/09/05 00:09:36;;;;;;;8.90;5.93;;;;;;;-142.75;100.00;76617.53;5025731;28;20634;-62
2023/09/05 00:12:04;;;;;;;9.18;6.20;;;;;;;-142.75;100.00;76617.53;5027340;28;20028;-62
2023/09/05 00:14:30;;;;;;;9.70;6.90;;;;;;;-142.75;100.00;76619.50;5025639;28;20029;-62
2023/09/05 00:16:55;;;;;;;9.18;6.60;;;;;;;-142.75;100.00;76621.47;5025213;28;20032;-62
2023/09/05 00:19:20;;;;;;;9.63;6.60;;;;;;;-142.75;100.00;76615.56;5025408;28;20485;-62
2023/09/05 00:21:46;;;;;;;8.57;6.32;;;;;;;-142.75;100.00;76617.53;5025219;28;20021;-62
2023/09/05 00:24:33;;;;;;;9.50;6.05;;;;;;;-142.75;100.00;76621.47;5025291;28;20100;-62
2023/09/05 00:27:00;;;;;;;8.95;6.38;;;;;;;-142.75;100.00;76615.56;5024921;28;20029;-62
2023/09/05 00:29:30;;;;;;;8.60;6.25;;;;;;;-142.75;100.00;76627.38;5024843;28;20697;-62
2023/09/05 00:31:59;;;;;;;9.45;6.28;;;;;;;-142.75;100.00;76617.53;5024953;28;20021;-62
2023/09/05 00:34:28;;;;;;;9.07;5.72;;;;;;;-142.75;100.00;76609.66;5025246;28;20033;-62
2023/09/05 00:36:54;;;;;;;7.60;6.00;;;;;;;-142.75;100.00;76619.50;5023806;28;20048;-62
2023/09/05 00:39:20;;;;;;;10.07;6.03;;;;;;;-142.75;100.00;76635.25;5024909;28;20118;-62
2023/09/05 00:41:46;;;;;;;8.90;6.43;;;;;;;-142.75;100.00;76625.41;5024762;28;20412;-62
2023/09/05 00:44:13;;;;;;;8.02;6.32;;;;;;;-142.75;100.00;76637.22;5025229;28;20043;-62
2023/09/05 00:46:41;;;;;;;7.22;5.65;;;;;;;-142.75;100.00;76627.38;5024525;28;20025;-63
2023/09/05 00:49:10;;;;;;;9.52;5.72;;;;;;;-142.75;100.00;76635.25;5024840;28;20075;-62
2023/09/05 00:51:37;;;;;;;8.48;5.72;;;;;;;-142.75;100.00;76637.22;5024818;28;20017;-62
2023/09/05 00:54:05;;;;;;;11.60;5.95;;;;;;;-142.75;100.00;76641.16;5024769;28;20021;-63
2023/09/05 00:56:32;;;;;;;8.55;5.40;;;;;;;-142.75;100.00;76649.03;5024512;28;20037;-62
2023/09/05 00:58:59;;;;;;;10.45;5.65;;;;;;;-142.75;100.00;76649.03;5023677;28;20021;-62
2023/09/05 01:01:24;;;;;;;8.55;5.80;;;;;;;-142.75;100.00;76643.13;5024637;28;20021;-62
2023/09/05 01:03:51;;;;;;;8.25;6.10;;;;;;;-142.75;100.00;76645.09;5024490;28;20087;-62
2023/09/05 01:06:37;;;;;;;7.15;5.05;;;;;;;-142.75;100.00;76627.38;5024565;28;20134;-62
2023/09/05 01:09:28;;;;;;;7.82;5.65;;;;;;;-142.75;100.00;76641.16;5023438;28;20031;-62
2023/09/05 01:11:55;;;;;;;11.50;5.93;;;;;;;-142.75;100.00;76649.03;5020759;28;20073;-63
2023/09/05 01:14:20;;;;;;;8.88;5.47;;;;;;;-142.75;100.00;76651.00;5024004;28;20030;-62
2023/09/05 01:16:46;;;;;;;9.00;5.55;;;;;;;-142.75;100.00;76651.00;5024228;28;20036;-62
2023/09/05 01:19:15;;;;;;;7.43;5.30;;;;;;;-142.75;100.00;76652.97;5024366;28;20028;-62
2023/09/05 01:21:55;;;;;;;8.95;5.22;;;;;;;-142.75;100.00;76651.00;5024473;28;20055;-62
2023/09/05 01:24:21;;;;;;;8.93;5.55;;;;;;;-142.75;100.00;76664.78;5024411;28;20036;-62
2023/09/05 01:26:49;;;;;;;9.80;6.13;;;;;;;-142.75;100.00;76660.84;5024116;28;20508;-62
2023/09/05 01:29:17;;;;;;;10.48;6.00;;;;;;;-142.75;100.00;76666.75;5020617;28;20370;-62
2023/09/05 01:31:43;;;;;;;8.00;5.72;;;;;;;-142.75;100.00;76656.91;5021697;28;20033;-62
2023/09/05 01:34:09;;;;;;;7.32;5.45;;;;;;;-142.75;100.00;76654.94;5022718;28;20029;-62
2023/09/05 01:36:34;;;;;;;8.32;5.55;;;;;;;-142.75;100.00;76652.97;5022711;28;20033;-62
2023/09/05 01:38:59;;;;;;;10.20;5.47;;;;;;;-142.75;100.00;76649.03;5025749;28;20021;-62
2023/09/05 01:41:25;;;;;;;7.28;5.15;;;;;;;-142.75;100.00;76654.94;5023275;28;20511;-62
2023/09/05 01:43:50;;;;;;;10.07;5.50;;;;;;;-142.75;100.00;76641.16;5023509;28;20044;-62
2023/09/05 01:46:15;;;;;;;8.85;5.00;;;;;;;-142.75;100.00;76641.16;5023711;28;20400;-62
2023/09/05 01:48:41;;;;;;;8.38;5.15;;;;;;;-142.75;100.00;76654.94;5022532;28;20021;-62
2023/09/05 01:51:06;;;;;;;8.68;5.53;;;;;;;-142.75;100.00;76652.97;5022603;28;20025;-62
2023/09/05 01:53:31;;;;;;;8.55;5.80;;;;;;;-142.75;100.00;76649.03;5023533;28;20112;-62
2023/09/05 01:55:57;;;;;;;9.65;6.28;;;;;;;-142.75;100.00;76652.97;5024203;28;20029;-62
2023/09/05 01:58:24;;;;;;;8.25;5.43;;;;;;;-142.75;100.00;76647.06;5024034;28;20688;-62
2023/09/05 02:00:49;;;;;;;9.57;5.60;;;;;;;-142.75;100.00;76651.00;5024153;28;20024;-62
2023/09/05 02:03:14;;;;;;;7.38;5.50;;;;;;;-142.75;100.00;76656.91;5024103;28;20026;-62
2023/09/05 02:05:40;;;;;;;8.73;5.65;;;;;;;-142.75;100.00;76660.84;5024502;28;20064;-63
2023/09/05 02:08:05;;;;;;;9.00;5.25;;;;;;;-142.75;100.00;76658.88;5023772;28;20385;-62
2023/09/05 02:10:31;;;;;;;7.78;5.53;;;;;;;-142.75;100.00;76652.97;5024223;28;20048;-62
2023/09/05 02:12:56;;;;;;;7.35;5.07;;;;;;;-142.75;100.00;76645.09;5024241;28;20071;-62
2023/09/05 02:15:22;;;;;;;8.38;5.75;;;;;;;-142.75;100.00;76649.03;5023753;28;20089;-62
2023/09/05 02:17:47;;;;;;;9.95;5.85;;;;;;;-142.75;100.00;76651.00;5023800;28;20075;-62
2023/09/05 02:20:13;;;;;;;8.02;4.97;;;;;;;-142.75;100.00;76641.16;5023902;28;20155;-62
2023/09/05 02:22:43;;;;;;;7.35;5.05;;;;;;;-142.75;100.00;76637.22;5023908;28;20033;-62
2023/09/05 02:25:08;;;;;;;9.10;5.57;;;;;;;-142.75;100.00;76635.25;5024468;28;20402;-62
2023/09/05 02:27:34;;;;;;;8.80;5.50;;;;;;;-142.75;100.00;76641.16;5026780;28;20038;-62
2023/09/05 02:30:01;;;;;;;7.60;5.75;;;;;;;-142.75;100.00;76649.03;5027331;28;20025;-62
2023/09/05 02:32:29;;;;;;;8.02;5.68;;;;;;;-142.75;100.00;76641.16;5027167;28;20032;-62
2023/09/05 02:34:55;;;;;;;8.35;5.93;;;;;;;-142.75;100.00;76662.81;5027511;28;20055;-62
2023/09/05 02:37:20;;;;;;;8.05;5.88;;;;;;;-142.75;100.00;76654.94;5027184;28;20477;-62
2023/09/05 02:39:46;;;;;;;8.73;6.07;;;;;;;-142.75;100.00;76668.72;5027232;28;20044;-62
2023/09/05 02:42:11;;;;;;;8.85;6.00;;;;;;;-142.75;100.00;76664.78;5027098;28;20025;-62
2023/09/05 02:44:36;;;;;;;7.93;5.63;;;;;;;-142.75;100.00;76674.63;5027403;28;20540;-62
2023/09/05 02:47:02;;;;;;;9.25;5.82;;;;;;;-142.75;100.00;76684.47;5026650;28;20021;-62
2023/09/05 02:49:27;;;;;;;8.27;5.85;;;;;;;-142.75;100.00;76678.56;5027314;28;20033;-62
2023/09/05 02:51:52;;;;;;;9.25;6.22;;;;;;;-142.75;100.00;76676.59;5027096;28;20501;-62
2023/09/05 02:54:18;;;;;;;9.82;6.32;;;;;;;-142.75;100.00;76674.63;5026656;28;20041;-62
2023/09/05 02:56:44;;;;;;;9.45;6.25;;;;;;;-142.75;100.00;76658.88;5026516;28;20068;-62
2023/09/05 02:59:09;;;;;;;10.48;6.22;;;;;;;-142.75;100.00;76651.00;5026862;28;20041;-62
2023/09/05 03:01:35;;;;;;;8.35;6.18;;;;;;;-142.75;100.00;76643.13;5026811;28;20025;-62
2023/09/05 03:04:00;;;;;;;8.43;6.10;;;;;;;-142.75;100.00;76639.19;5026392;28;20036;-62
2023/09/05 03:06:26;;;;;;;6.95;5.32;;;;;;;-142.75;100.00;76633.28;5026869;28;20665;-62
2023/09/05 03:08:51;;;;;;;10.88;6.10;;;;;;;-142.75;100.00;76637.22;5026668;28;20040;-62
2023/09/05 03:11:18;;;;;;;7.57;5.53;;;;;;;-142.75;100.00;76629.34;5026371;28;20030;-63
2023/09/05 03:13:44;;;;;;;9.75;6.28;;;;;;;-142.75;100.00;76643.13;5027028;28;20087;-62
2023/09/05 03:16:11;;;;;;;8.30;5.28;;;;;;;-142.75;100.00;76647.06;5025891;28;20511;-62
2023/09/05 03:18:36;;;;;;;8.73;5.97;;;;;;;-142.75;100.00;76660.84;5026688;28;20060;-62
2023/09/05 03:21:02;;;;;;;9.48;5.78;;;;;;;-142.75;100.00;76676.59;5026458;28;20034;-62
2023/09/05 03:23:27;;;;;;;11.80;5.68;;;;;;;-142.75;100.00;76672.66;5026479;28;20033;-62
2023/09/05 03:25:53;;;;;;;8.60;5.57;;;;;;;-142.75;100.00;76664.78;5026059;28;20096;-62
2023/09/05 03:28:18;;;;;;;8.68;6.10;;;;;;;-142.75;100.00;76660.84;5025550;28;20017;-62
2023/09/05 03:30:44;;;;;;;11.13;6.30;;;;;;;-142.75;100.00;76668.72;5026284;28;20028;-62
2023/09/05 03:33:09;;;;;;;7.68;5.22;;;;;;;-142.75;100.00;76660.84;5026472;28;20033;-62
2023/09/05 03:35:35;;;;;;;8.23;6.28;;;;;;;-142.75;100.00;76652.97;5026108;28;20060;-62
2023/09/05 03:38:02;;;;;;;8.73;6.00;;;;;;;-142.75;100.00;76643.13;5025567;28;20040;-62
2023/09/05 03:40:29;;;;;;;9.15;6.20;;;;;;;-142.75;100.00;76647.06;5025942;28;20025;-62
2023/09/05 03:42:54;;;;;;;8.15;5.97;;;;;;;-142.75;100.00;76654.94;5026173;28;20018;-62
2023/09/05 03:45:20;;;;;;;8.85;6.22;;;;;;;-142.75;100.00;76660.84;5026050;28;20037;-62
2023/09/05 03:47:45;;;;;;;7.93;6.00;;;;;;;-142.75;100.00;76649.03;5025834;28;20064;-62
2023/09/05 03:50:13;;;;;;;8.07;5.47;;;;;;;-142.75;100.00;76645.09;5025815;28;20025;-62
2023/09/05 03:52:38;;;;;;;8.07;5.85;;;;;;;-142.75;100.00;76639.19;5025971;28;20037;-62
2023/09/05 03:55:05;;;;;;;9.98;6.35;;;;;;;-142.75;100.00;76641.16;5025761;28;20029;-62
2023/09/05 03:57:30;;;;;;;9.45;5.75;;;;;;;-142.75;100.00;76631.31;5025783;28;20033;-62
2023/09/05 03:59:55;;;;;;;9.15;6.30;;;;;;;-142.75;100.00;76641.16;5025406;28;20167;-62
2023/09/05 04:02:21;;;;;;;10.77;6.38;;;;;;;-142.75;100.00;76641.16;5026915;28;20032;-63
2023/09/05 04:04:46;;;;;;;9.23;6.40;;;;;;;-142.75;100.00;76637.22;5025645;28;20029;-63
2023/09/05 04:07:11;;;;;;;10.88;6.13;;;;;;;-142.75;100.00;76637.22;5025737;28;20112;-63
2023/09/05 04:09:37;;;;;;;10.48;5.80;;;;;;;-142.75;100.00;76637.22;5025503;28;20132;-62
2023/09/05 04:12:02;;;;;;;9.18;6.03;;;;;;;-142.75;100.00;76645.09;5025458;28;20048;-63
2023/09/05 04:14:28;;;;;;;10.18;6.03;;;;;;;-142.75;100.00;76639.19;5025565;28;20029;-62
2023/09/05 04:16:53;;;;;;;9.15;6.07;;;;;;;-142.75;100.00;76652.97;5025217;28;20037;-62
2023/09/05 04:19:18;;;;;;;9.80;6.22;;;;;;;-142.75;100.00;76652.97;5025224;28;20474;-62
2023/09/05 04:21:44;;;;;;;9.75;6.28;;;;;;;-142.75;100.00;76660.84;5025373;28;20757;-62
2023/09/05 04:24:09;;;;;;;8.85;5.55;;;;;;;-142.75;100.00;76662.81;5025309;28;20030;-62
2023/09/05 04:26:34;;;;;;;10.45;5.85;;;;;;;-142.75;100.00;76658.88;5025786;28;20033;-62
2023/09/05 04:29:00;;;;;;;10.25;6.40;;;;;;;-142.75;100.00;76660.84;5024781;28;20116;-62
2023/09/05 04:31:26;;;;;;;10.23;6.35;;;;;;;-142.75;100.00;76668.72;5025293;28;20021;-62
2023/09/05 04:33:51;;;;;;;8.60;5.38;;;;;;;-142.75;100.00;76670.69;5031061;28;20048;-62
2023/09/05 04:36:17;;;;;;;9.63;5.90;;;;;;;-142.75;100.00;76672.66;5026302;28;20412;-62
2023/09/05 04:38:45;;;;;;;10.55;5.45;;;;;;;-142.75;100.00;76678.56;5025193;28;20948;-62
2023/09/05 04:41:11;;;;;;;9.57;6.05;;;;;;;-142.75;100.00;76676.59;5024679;28;20021;-62
2023/09/05 04:43:36;;;;;;;12.63;5.85;;;;;;;-142.75;100.00;76668.72;5019978;28;20036;-62
2023/09/05 04:46:03;;;;;;;10.45;6.15;;;;;;;-142.75;100.00;76674.63;5020949;28;20022;-62
2023/09/05 04:48:29;;;;;;;11.30;5.97;;;;;;;-142.75;100.00;76700.22;5021937;28;20448;-62
2023/09/05 04:50:55;;;;;;;10.63;6.03;;;;;;;-142.75;100.00;76698.25;5024097;28;20079;-62
2023/09/05 04:53:20;;;;;;;10.18;5.70;;;;;;;-142.75;100.00;76702.19;5022943;28;20456;-62
2023/09/05 04:55:47;;;;;;;9.38;5.40;;;;;;;-142.75;100.00;76700.22;5027334;28;20492;-62
2023/09/05 04:58:13;;;;;;;8.50;5.45;;;;;;;-142.75;100.00;76708.09;5023630;28;20025;-62
2023/09/05 05:00:40;;;;;;;8.95;6.47;;;;;;;-142.75;100.00;76700.22;5024048;28;20078;-62
2023/09/05 05:03:05;;;;;;;11.13;6.13;;;;;;;-142.75;100.00;76682.50;5027816;28;20104;-62
2023/09/05 05:05:31;;;;;;;9.63;6.78;;;;;;;-142.75;100.00;76676.59;5030444;28;20192;-62
2023/09/05 05:07:56;;;;;;;10.02;6.38;;;;;;;-142.75;100.00;76670.69;5022667;28;20055;-62
2023/09/05 05:10:21;;;;;;;11.23;6.75;;;;;;;-142.75;100.00;76664.78;5023433;28;20051;-62
2023/09/05 05:12:47;;;;;;;10.30;6.85;;;;;;;-142.75;100.00;76658.88;5025691;28;20033;-62
2023/09/05 05:15:13;;;;;;;11.30;6.65;;;;;;;-142.75;100.00;76654.94;5023956;28;20034;-62
2023/09/05 05:17:39;;;;;;;13.43;6.70;;;;;;;-142.75;100.00;76645.09;5020949;28;20033;-62
2023/09/05 05:20:05;;;;;;;11.10;7.07;;;;;;;-142.75;100.00;76645.09;5023623;28;20036;-62
2023/09/05 05:22:31;;;;;;;8.90;6.07;;;;;;;-142.75;100.00;76637.22;5021902;28;20092;-62
2023/09/05 05:24:57;;;;;;;9.40;6.18;;;;;;;-142.75;100.00;76615.56;5031957;28;20546;-62
2023/09/05 05:27:22;;;;;;;10.18;6.47;;;;;;;-142.75;100.00;76609.66;5029369;28;20093;-62
2023/09/05 05:29:48;;;;;;;8.13;5.82;;;;;;;-142.75;100.00;76621.47;5023693;28;20025;-62
2023/09/05 05:32:13;;;;;;;8.70;6.22;;;;;;;-142.75;100.00;76617.53;5023497;28;20065;-62
2023/09/05 05:34:38;;;;;;;9.82;6.28;;;;;;;-142.75;100.00;76609.66;5023826;28;20052;-62
2023/09/05 05:37:04;;;;;;;10.75;6.22;;;;;;;-142.75;100.00;76615.56;5031788;28;20036;-61
2023/09/05 05:39:29;;;;;;;12.57;6.43;;;;;;;-142.75;100.00;76613.59;5023953;28;20025;-62
2023/09/05 05:41:55;;;;;;;9.95;6.05;;;;;;;-142.75;100.00;76601.78;5024663;28;20167;-62
2023/09/05 05:44:21;;;;;;;8.48;5.75;;;;;;;-142.75;100.00;76586.03;5025285;28;20029;-62
2023/09/05 05:46:46;;;;;;;8.73;6.30;;;;;;;-142.75;100.00;76586.03;5024747;28;20034;-62
2023/09/05 05:49:11;;;;;;;10.70;6.68;;;;;;;-142.75;100.00;76586.03;5022311;28;20030;-63
2023/09/05 05:51:37;;;;;;;11.25;5.75;;;;;;;-142.75;100.00;76570.28;5023542;28;20117;-62
2023/09/05 05:54:03;;;;;;;8.75;6.03;;;;;;;-142.75;100.00;76593.91;5023461;28;20057;-62
2023/09/05 05:56:29;;;;;;;11.73;5.88;;;;;;;-142.75;100.00;76574.22;5025003;28;20529;-62
2023/09/05 05:58:54;;;;;;;9.02;5.32;;;;;;;-142.75;100.00;76556.50;5023297;28;20040;-62
2023/09/05 06:01:20;;;;;;;9.27;6.18;;;;;;;-142.75;100.00;76552.56;5027073;28;20040;-62
2023/09/05 06:03:46;;;;;;;10.45;5.85;;;;;;;-142.75;100.00;76548.63;5027311;28;20107;-62
2023/09/05 06:06:12;;;;;;;9.32;5.80;;;;;;;-142.75;100.00;76534.84;5026976;28;20029;-62
2023/09/05 06:08:37;;;;;;;7.90;5.53;;;;;;;-142.75;100.00;76536.84;5027161;28;20032;-62
2023/09/05 06:11:03;;;;;;;8.23;5.50;;;;;;;-142.75;100.00;76534.84;5027210;28;20116;-62
2023/09/05 06:13:29;;;;;;;8.35;5.63;;;;;;;-142.75;100.00;76527.00;5027596;28;20025;-62
2023/09/05 06:15:55;;;;;;;8.20;5.15;;;;;;;-142.75;100.00;76513.22;5034934;28;20024;-62
2023/09/05 06:18:20;;;;;;;8.07;5.30;;;;;;;-142.75;100.00;76501.41;5021758;28;20030;-63
2023/09/05 06:20:46;;;;;;;8.80;5.18;;;;;;;-142.75;100.00;76489.59;5027211;28;20032;-62
2023/09/05 06:23:11;;;;;;;9.23;5.00;;;;;;;-142.75;100.00;76509.28;5024164;28;20025;-63
2023/09/05 06:25:36;;;;;;;7.97;5.05;;;;;;;-142.75;100.00;76519.13;5026435;28;20137;-63
2023/09/05 06:28:02;;;;;;;7.50;5.35;;;;;;;-142.75;100.00;76507.31;5026599;28;20025;-62
2023/09/05 06:30:27;;;;;;;7.68;4.82;;;;;;;-142.75;100.00;76515.19;5026592;28;20099;-62
2023/09/05 06:32:53;;;;;;;9.50;5.10;;;;;;;-142.75;100.00;76507.31;5026794;28;20509;-62
2023/09/05 06:35:18;;;;;;;8.95;5.03;;;;;;;-142.75;100.00;76511.25;5025961;28;20684;-62
2023/09/05 06:37:44;;;;;;;10.13;5.13;;;;;;;-142.75;100.00;76487.63;5026334;28;20021;-63
2023/09/05 06:40:15;;;;;;;11.93;5.60;;;;;;;-142.75;100.00;76501.41;5025982;28;20017;-62
2023/09/05 06:42:43;;;;;;;9.13;4.55;;;;;;;-142.75;100.00;76491.56;5026692;28;20021;-62
2023/09/05 06:45:10;;;;;;;10.15;5.05;;;;;;;-142.75;100.00;76495.50;5027031;28;20021;-62
2023/09/05 06:47:35;;;;;;;8.80;5.53;;;;;;;-142.75;100.00;76464.00;5016275;28;20033;-62
2023/09/05 06:50:07;;;;;;;7.90;5.85;;;;;;;-142.75;100.00;76444.31;5022446;28;20072;-62
2023/09/05 06:52:33;;;;;;;9.18;4.78;;;;;;;-142.75;100.00;76414.78;5021633;28;20026;-62
2023/09/05 06:54:58;;;;;;;7.80;5.18;;;;;;;-142.75;100.00;76399.03;5023635;28;20112;-62
2023/09/05 06:57:25;;;;;;;9.05;5.10;;;;;;;-142.75;100.00;76393.13;5025306;28;20028;-62
2023/09/05 06:59:50;;;;;;;8.00;5.15;;;;;;;-142.75;100.00;76397.06;5023535;28;20030;-62
2023/09/05 07:02:16;;;;;;;6.63;4.20;;;;;;;-142.75;100.00;76397.06;5021449;28;20029;-62
2023/09/05 07:04:41;;;;;;;6.68;4.63;;;;;;;-142.75;100.00;76395.09;5019936;28;20652;-63
2023/09/05 07:07:08;;;;;;;8.85;4.85;;;;;;;-142.75;100.00;76381.31;5014877;28;20036;-63
2023/09/05 07:09:34;;;;;;;6.10;4.25;;;;;;;-142.75;100.00;76373.44;5020385;28;20025;-63
2023/09/05 07:12:00;;;;;;;6.55;4.38;;;;;;;-142.75;100.00;76385.25;5020688;28;20034;-63
2023/09/05 07:14:25;;;;;;;7.07;4.53;;;;;;;-142.75;100.00;76369.50;5019376;28;20091;-62
2023/09/05 07:16:50;;;;;;;6.97;4.47;;;;;;;-142.75;100.00;76369.50;5021215;28;20037;-62
2023/09/05 07:19:17;;;;;;;7.18;4.63;;;;;;;-142.75;100.00;76373.44;5025395;28;20048;-62
2023/09/05 07:21:43;;;;;;;10.77;4.40;;;;;;;-142.75;100.00;76353.78;5021371;28;20030;-62
2023/09/05 07:24:11;;;;;;;10.55;3.90;;;;;;;-142.75;100.00;76318.34;5018590;28;20034;-62
2023/09/05 07:26:38;;;;;;;7.28;4.60;;;;;;;-142.75;100.00;76298.66;5020333;28;20055;-62
2023/09/05 07:29:04;;;;;;;6.93;4.00;;;;;;;-142.75;100.00;76294.72;5022981;28;20037;-63
2023/09/05 07:31:31;;;;;;;6.35;4.03;;;;;;;-142.75;100.00;76269.13;4989820;28;20026;-63
2023/09/05 07:33:57;;;;;;;7.97;3.80;;;;;;;-142.75;100.00;76233.69;5019407;28;20029;-63
2023/09/05 07:36:23;;;;;;;5.95;3.88;;;;;;;-142.75;100.00;76251.41;5018516;28;20544;-63
2023/09/05 07:38:48;;;;;;;9.80;4.05;;;;;;;-142.75;100.00;76227.78;5024714;28;20087;-62
2023/09/05 07:41:13;;;;;;;7.18;3.42;;;;;;;-142.75;100.00;76233.69;5019234;28;20028;-63
2023/09/05 07:43:39;;;;;;;5.25;3.60;;;;;;;-142.75;100.00;76229.75;5022697;28;20027;-63
2023/09/05 07:46:04;;;;;;;6.28;3.88;;;;;;;-142.75;100.00;76221.88;5019585;28;20080;-62
2023/09/05 07:48:29;;;;;;;5.03;3.05;;;;;;;-142.75;100.00;76215.97;5023874;28;20029;-62
2023/09/05 07:51:05;;;;;;;7.53;4.20;;;;;;;-142.75;100.00;76188.44;5016540;28;20030;-62
2023/09/05 07:53:32;;;;;;;6.40;4.57;;;;;;;-142.75;100.00;76162.84;5024009;28;20022;-63
2023/09/05 07:55:58;;;;;;;6.97;3.92;;;;;;;-142.75;100.00;76137.25;5022627;28;20110;-63
2023/09/05 07:58:25;;;;;;;6.32;3.92;;;;;;;-142.75;100.00;76119.53;5025480;28;20489;-63
2023/09/05 08:00:52;;;;;;;5.25;3.50;;;;;;;-142.75;100.00;76105.75;5023795;28;20489;-62
2023/09/05 08:03:18;;;;;;;7.10;4.78;;;;;;;-142.75;100.00;76097.88;5015209;28;20017;-62
2023/09/05 08:05:43;;;;;;;5.97;3.53;;;;;;;-142.75;100.00;76090.00;5017514;28;20036;-63
2023/09/05 08:08:08;;;;;;;7.75;4.45;;;;;;;-142.75;100.00;76074.25;5023567;28;20025;-63
2023/09/05 08:10:34;;;;;;;7.38;3.22;;;;;;;-142.75;100.00;76076.22;5020400;28;20029;-63
2023/09/05 08:12:59;;;;;;;5.43;3.53;;;;;;;-142.75;100.00;76080.16;5023669;28;20021;-62
2023/09/05 08:15:25;;;;;;;10.75;3.78;;;;;;;-142.75;100.00;76082.13;5024655;28;20056;-63
2023/09/05 08:17:51;;;;;;;7.70;3.78;;;;;;;-142.75;100.00;76082.13;5024177;28;20025;-63
2023/09/05 08:20:17;;;;;;;5.30;3.00;;;;;;;-142.75;100.00;76062.47;5023538;28;20565;-63
2023/09/05 08:22:44;;;;;;;5.53;3.60;;;;;;;-142.75;100.00;76046.72;5025315;28;20087;-63
2023/09/05 08:25:10;;;;;;;6.32;3.30;;;;;;;-142.75;100.00;76086.06;5024874;28;20109;-63
2023/09/05 08:27:35;;;;;;;4.68;3.15;;;;;;;-142.75;100.00;76048.69;5024605;28;20458;-63
2023/09/05 08:30:01;;;;;;;4.40;3.15;;;;;;;-142.75;100.00;76046.72;5024878;28;20049;-63
2023/09/05 08:32:27;;;;;;;7.13;3.70;;;;;;;-142.75;100.00;76030.97;5024231;28;20052;-63
2023/09/05 08:34:52;;;;;;;6.45;3.30;;;;;;;-142.75;100.00;75999.47;5023816;28;20029;-63
2023/09/05 08:37:19;;;;;;;5.97;3.60;;;;;;;-142.75;100.00;75983.72;5032595;28;20029;-63
2023/09/05 08:39:45;;;;;;;6.95;4.50;;;;;;;-142.75;100.00;75977.81;5024811;28;20454;-63
2023/09/05 08:42:11;;;;;;;7.28;5.68;;;;;;;-142.75;100.00;75983.72;5024491;28;20100;-63
2023/09/05 08:44:43;;;;;;;7.45;6.63;;;;;;;-142.75;100.00;75936.50;5024505;28;20100;-63
2023/09/05 08:47:08;;;;;;;6.10;4.05;;;;;;;-142.75;100.00;75916.81;5023387;28;20025;-63
2023/09/05 08:49:34;;;;;;;4.43;3.30;;;;;;;-142.75;100.00;75910.91;5024353;28;20076;-65
2023/09/05 08:52:04;;;;;;;5.22;3.53;;;;;;;-142.75;100.00;75901.06;5023317;28;20040;-63
2023/09/05 08:54:30;;;;;;;6.63;3.50;;;;;;;-142.75;100.00;75908.94;5030506;28;20024;-64
2023/09/05 08:56:59;;;;;;;5.97;3.33;;;;;;;-142.75;100.00;75905.00;5024104;28;20480;-64
2023/09/05 08:59:25;;;;;;;4.35;3.08;;;;;;;-142.75;100.00;75873.50;5023800;28;20071;-64
2023/09/05 09:01:51;;;;;;;7.13;3.40;;;;;;;-142.75;100.00;75859.72;5024684;28;20021;-64
2023/09/05 09:04:19;;;;;;;4.10;3.22;;;;;;;-142.75;100.00;75865.63;5024431;28;20123;-63
2023/09/05 09:06:54;;;;;;;5.20;3.53;;;;;;;-142.75;100.00;75857.78;5023194;28;20029;-64
2023/09/05 09:09:38;;;;;;;5.73;3.43;;;;;;;-142.75;100.00;75847.94;5022957;28;20088;-64
2023/09/05 09:12:04;;;;;;;6.10;3.30;;;;;;;-142.75;100.00;75830.22;5022738;28;20033;-63
2023/09/05 09:14:29;;;;;;;5.47;3.15;;;;;;;-142.75;100.00;75790.84;5025345;28;20135;-63
2023/09/05 09:16:58;;;;;;;5.25;3.35;;;;;;;-142.75;100.00;75755.44;5025146;28;20559;-61
2023/09/05 09:19:24;;;;;;;5.43;3.20;;;;;;;-142.75;100.00;75737.72;5023639;28;20060;-62
2023/09/05 09:21:49;;;;;;;5.20;3.42;;;;;;;-142.75;99.22;75720.00;5022961;28;20588;-61
2023/09/05 09:24:18;;;;;;;5.40;3.28;;;;;;;-142.75;97.69;75694.41;5022935;28;20184;-61
2023/09/05 09:26:44;;;;;;;5.63;2.88;;;;;;;-142.75;94.76;75637.34;5023792;28;20128;-60
2023/09/05 09:29:10;;;;;;;4.50;3.20;;;;;;;-142.75;95.22;75639.31;5024287;28;20536;-60
2023/09/05 09:31:40;;;;;;;5.53;3.08;;;;;;;-142.75;93.93;75615.69;5024250;28;20503;-61
2023/09/05 09:34:07;;;;;;;4.57;2.83;;;;;;;-142.75;92.49;75594.06;5023935;28;20021;-61
2023/09/05 09:36:34;;;;;;;4.78;3.25;;;;;;;-142.75;94.09;75592.09;5029018;28;20147;-61
2023/09/05 09:39:10;;;;;;;10.25;3.67;;;;;;;-142.75;92.43;75594.06;5029154;28;20047;-62
2023/09/05 09:41:40;;;;;;;;;;;;;;;-142.75;92.37;75586.19;5028111;28;20517;-62
2023/09/05 09:44:05;;;;;;;5.85;3.42;;;;;;;-142.75;92.50;75596.00;5027801;28;19913;-62
2023/09/05 09:46:31;;;;;;;5.38;3.58;;;;;;;-142.75;93.27;75588.16;5029038;28;20021;-61
2023/09/05 09:48:59;;;;;;;5.57;3.17;;;;;;;-142.75;90.95;75572.41;5027817;28;20044;-61
2023/09/05 09:51:30;;;;;;;7.30;3.20;;;;;;;-142.75;94.62;75558.63;5028667;28;20025;-61
2023/09/05 09:53:59;;;;;;;5.45;3.40;;;;;;;-142.75;91.51;75566.50;5028476;28;20400;-61
2023/09/05 09:56:26;;;;;;;7.85;3.63;;;;;;;-142.75;91.24;75594.06;5028301;28;20101;-61
2023/09/05 09:58:55;;;;;;;6.15;2.97;;;;;;;-142.75;91.24;75599.94;5028628;28;20071;-60
2023/09/05 10:01:21;;;;;;;7.05;2.95;;;;;;;-142.75;89.92;75566.50;5028651;28;20017;-61
2023/09/05 10:03:48;;;;;;;5.47;3.58;;;;;;;-142.75;92.24;75558.63;5028413;28;20022;-61
2023/09/05 10:06:15;;;;;;;6.75;4.13;;;;;;;-142.75;94.58;75558.63;5028188;28;20025;-61
2023/09/05 10:08:42;;;;;;;9.32;3.47;;;;;;;-142.75;91.73;75568.47;5028394;28;20061;-61
2023/09/05 10:11:10;;;;;;;5.60;3.60;;;;;;;-142.75;93.37;75570.44;5028682;28;20519;-62
2023/09/05 10:13:37;;;;;;;5.80;3.67;;;;;;;-142.75;93.70;75582.25;5028002;28;20447;-60
2023/09/05 10:16:03;;;;;;;6.85;3.03;;;;;;;-142.75;92.63;75574.38;5027700;28;20082;-58
2023/09/05 10:18:32;;;;;;;5.63;3.55;;;;;;;-142.75;94.48;75558.63;5028126;28;20037;-61
2023/09/05 10:21:01;;;;;;;4.75;3.00;;;;;;;-142.75;95.28;75562.56;5028103;28;20017;-61
2023/09/05 10:23:30;;;;;;;5.43;3.45;;;;;;;-142.75;95.16;75568.47;5026039;28;20041;-61
2023/09/05 10:25:57;;;;;;;5.10;3.13;;;;;;;-142.75;95.10;75536.97;5021820;28;20021;-60
2023/09/05 10:28:27;;;;;;;5.15;3.10;;;;;;;-142.75;95.34;75527.13;5020776;28;20036;-62
2023/09/05 10:30:54;;;;;;;6.13;3.10;;;;;;;-142.75;92.45;75538.94;5027025;28;20029;-61
2023/09/05 10:33:52;;;;;;;6.38;2.97;;;;;;;-142.75;92.79;75507.47;5027882;28;20040;-61
2023/09/05 10:36:46;;;;;;;4.90;3.10;;;;;;;-142.75;92.26;75479.91;5035843;28;20033;-62
2023/09/05 10:39:27;;;;;;;4.95;2.53;;;;;;;-142.75;91.77;75472.03;5026877;28;20052;-62
2023/09/05 10:41:53;;;;;;;6.57;3.58;;;;;;;-142.75;94.36;75450.38;5027641;28;20365;-61
2023/09/05 10:44:18;;;;;;;7.80;3.35;;;;;;;-142.75;92.37;75458.25;5028111;28;20021;-62
2023/09/05 10:46:44;;;;;;;5.03;2.90;;;;;;;-142.75;92.80;75436.59;5027824;28;20088;-61
2023/09/05 10:49:14;;;;;;;4.95;3.03;;;;;;;-142.75;89.24;75428.75;5027450;28;20056;-62
2023/09/05 10:52:14;;;;;;;4.63;2.83;;;;;;;-142.75;90.74;75420.88;5027579;28;20041;-61
2023/09/05 10:54:40;;;;;;;7.13;3.17;;;;;;;-142.75;86.82;75424.81;5027860;28;20033;-61
2023/09/05 10:57:33;;;;;;;10.30;3.17;;;;;;;-142.75;90.64;75409.06;5027628;28;20025;-62
2023/09/05 10:59:58;;;;;;;5.40;3.33;;;;;;;-142.75;91.42;75416.94;5027280;28;20108;-62
2023/09/05 11:02:24;;;;;;;6.45;3.70;;;;;;;-142.75;91.72;75413.00;5027536;28;20402;-62
2023/09/05 11:04:50;;;;;;;3.60;2.60;;;;;;;-142.75;93.37;75377.56;5027412;28;20021;-62
2023/09/05 11:07:17;;;;;;;6.65;2.78;;;;;;;-142.75;86.73;75373.63;5027216;28;20035;-61
2023/09/05 11:09:46;;;;;;;6.88;3.08;;;;;;;-142.75;87.81;75336.25;5027262;28;20033;-62